sensor_id;sensor_type;location;lat;lon;timestamp;P1;durP1;ratioP1;P2;durP2;ratioP2
51987;SDS011;38003;52.012;4.346;2023-07-13T00:01:06;15.47;;;3.53;;
51987;SDS011;38003;52.012;4.346;2023-07-13T00:03:36;13.37;;;2.90;;
51987;SDS011;38003;52.012;4.346;2023-07-13T00:06:07;13.18;;;3.17;;
51987;SDS011;38003;52.012;4.346;2023-07-13T00:08:36;15.90;;;3.37;;
51987;SDS011;38003;52.012;4.346;2023-07-13T00:11:05;14.10;;;2.72;;
51987;SDS011;38003;52.012;4.346;2023-07-13T00:13:34;14.68;;;2.88;;
51987;SDS011;38003;52.012;4.346;2023-07-13T00:16:01;15.52;;;3.00;;
51987;SDS011;38003;52.012;4.346;2023-07-13T00:18:29;11.27;;;2.72;;
51987;SDS011;38003;52.012;4.346;2023-07-13T00:20:58;15.43;;;2.80;;
51987;SDS011;38003;52.012;4.346;2023-07-13T00:23:31;12.57;;;2.93;;
51987;SDS011;38003;52.012;4.346;2023-07-13T00:26:00;10.80;;;2.87;;
51987;SDS011;38003;52.012;4.346;2023-07-13T00:28:28;12.37;;;2.60;;
51987;SDS011;38003;52.012;4.346;2023-07-13T00:30:56;8.63;;;2.58;;
51987;SDS011;38003;52.012;4.346;2023-07-13T00:33:24;14.50;;;3.20;;
51987;SDS011;38003;52.012;4.346;2023-07-13T00:35:53;15.18;;;2.67;;
51987;SDS011;38003;52.012;4.346;2023-07-13T00:38:23;9.75;;;2.30;;
51987;SDS011;38003;52.012;4.346;2023-07-13T00:40:51;10.02;;;2.38;;
51987;SDS011;38003;52.012;4.346;2023-07-13T00:43:20;8.15;;;2.15;;
51987;SDS011;38003;52.012;4.346;2023-07-13T00:48:36;10.20;;;2.30;;
51987;SDS011;38003;52.012;4.346;2023-07-13T00:51:05;8.27;;;1.80;;
51987;SDS011;38003;52.012;4.346;2023-07-13T00:53:34;10.38;;;2.05;;
51987;SDS011;38003;52.012;4.346;2023-07-13T00:56:03;6.28;;;1.90;;
51987;SDS011;38003;52.012;4.346;2023-07-13T00:58:31;8.95;;;1.88;;
51987;SDS011;38003;52.012;4.346;2023-07-13T01:00:59;9.00;;;1.80;;
51987;SDS011;38003;52.012;4.346;2023-07-13T01:03:28;8.60;;;2.00;;
51987;SDS011;38003;52.012;4.346;2023-07-13T01:05:56;10.30;;;2.10;;
51987;SDS011;38003;52.012;4.346;2023-07-13T01:08:23;7.85;;;2.30;;
51987;SDS011;38003;52.012;4.346;2023-07-13T01:10:54;8.50;;;1.70;;
51987;SDS011;38003;52.012;4.346;2023-07-13T01:13:23;6.40;;;1.55;;
51987;SDS011;38003;52.012;4.346;2023-07-13T01:15:51;4.30;;;1.33;;
51987;SDS011;38003;52.012;4.346;2023-07-13T01:18:25;8.15;;;1.35;;
51987;SDS011;38003;52.012;4.346;2023-07-13T01:20:56;5.50;;;1.20;;
51987;SDS011;38003;52.012;4.346;2023-07-13T01:23:25;3.45;;;1.00;;
51987;SDS011;38003;52.012;4.346;2023-07-13T01:25:53;2.65;;;1.10;;
51987;SDS011;38003;52.012;4.346;2023-07-13T01:28:23;4.10;;;1.05;;
51987;SDS011;38003;52.012;4.346;2023-07-13T01:30:53;3.23;;;0.90;;
51987;SDS011;38003;52.012;4.346;2023-07-13T01:33:21;3.95;;;0.98;;
51987;SDS011;38003;52.012;4.346;2023-07-13T01:35:50;1.98;;;0.90;;
51987;SDS011;38003;52.012;4.346;2023-07-13T01:38:20;2.28;;;1.05;;
51987;SDS011;38003;52.012;4.346;2023-07-13T01:40:50;4.20;;;1.00;;
51987;SDS011;38003;52.012;4.346;2023-07-13T01:43:18;2.10;;;0.90;;
51987;SDS011;38003;52.012;4.346;2023-07-13T01:45:47;4.65;;;0.93;;
51987;SDS011;38003;52.012;4.346;2023-07-13T01:48:16;4.40;;;0.80;;
51987;SDS011;38003;52.012;4.346;2023-07-13T01:50:44;2.05;;;0.90;;
51987;SDS011;38003;52.012;4.346;2023-07-13T01:53:12;5.03;;;1.00;;
51987;SDS011;38003;52.012;4.346;2023-07-13T01:55:42;2.33;;;0.80;;
51987;SDS011;38003;52.012;4.346;2023-07-13T01:58:10;5.80;;;1.25;;
51987;SDS011;38003;52.012;4.346;2023-07-13T02:00:38;4.23;;;1.27;;
51987;SDS011;38003;52.012;4.346;2023-07-13T02:03:07;3.10;;;1.17;;
51987;SDS011;38003;52.012;4.346;2023-07-13T02:05:35;2.17;;;1.05;;
51987;SDS011;38003;52.012;4.346;2023-07-13T02:08:04;3.00;;;0.97;;
51987;SDS011;38003;52.012;4.346;2023-07-13T02:10:32;6.20;;;1.20;;
51987;SDS011;38003;52.012;4.346;2023-07-13T02:13:01;4.73;;;1.00;;
51987;SDS011;38003;52.012;4.346;2023-07-13T02:15:30;3.88;;;1.30;;
51987;SDS011;38003;52.012;4.346;2023-07-13T02:17:58;3.38;;;1.25;;
51987;SDS011;38003;52.012;4.346;2023-07-13T02:20:26;4.10;;;1.30;;
51987;SDS011;38003;52.012;4.346;2023-07-13T02:22:54;2.90;;;1.20;;
51987;SDS011;38003;52.012;4.346;2023-07-13T02:25:23;5.37;;;1.60;;
51987;SDS011;38003;52.012;4.346;2023-07-13T02:27:53;4.53;;;1.23;;
51987;SDS011;38003;52.012;4.346;2023-07-13T02:30:22;5.40;;;1.50;;
51987;SDS011;38003;52.012;4.346;2023-07-13T02:32:51;10.13;;;2.25;;
51987;SDS011;38003;52.012;4.346;2023-07-13T02:35:20;7.47;;;1.67;;
51987;SDS011;38003;52.012;4.346;2023-07-13T02:37:48;8.33;;;2.20;;
51987;SDS011;38003;52.012;4.346;2023-07-13T02:40:16;4.60;;;1.50;;
51987;SDS011;38003;52.012;4.346;2023-07-13T02:42:44;9.10;;;2.00;;
51987;SDS011;38003;52.012;4.346;2023-07-13T02:45:13;7.50;;;2.03;;
51987;SDS011;38003;52.012;4.346;2023-07-13T02:47:42;7.30;;;2.20;;
51987;SDS011;38003;52.012;4.346;2023-07-13T02:50:10;8.70;;;2.30;;
51987;SDS011;38003;52.012;4.346;2023-07-13T02:52:39;9.53;;;2.23;;
51987;SDS011;38003;52.012;4.346;2023-07-13T02:55:07;8.85;;;2.10;;
51987;SDS011;38003;52.012;4.346;2023-07-13T02:57:36;10.77;;;2.40;;
51987;SDS011;38003;52.012;4.346;2023-07-13T03:00:04;10.30;;;2.40;;
51987;SDS011;38003;52.012;4.346;2023-07-13T03:02:33;11.83;;;2.60;;
51987;SDS011;38003;52.012;4.346;2023-07-13T03:05:04;9.80;;;3.10;;
51987;SDS011;38003;52.012;4.346;2023-07-13T03:07:32;9.38;;;2.35;;
51987;SDS011;38003;52.012;4.346;2023-07-13T03:10:00;10.55;;;2.42;;
51987;SDS011;38003;52.012;4.346;2023-07-13T03:12:30;10.15;;;2.50;;
51987;SDS011;38003;52.012;4.346;2023-07-13T03:14:58;13.48;;;3.22;;
51987;SDS011;38003;52.012;4.346;2023-07-13T03:17:26;11.05;;;2.67;;
51987;SDS011;38003;52.012;4.346;2023-07-13T03:19:54;12.33;;;2.73;;
51987;SDS011;38003;52.012;4.346;2023-07-13T03:22:24;10.97;;;2.37;;
51987;SDS011;38003;52.012;4.346;2023-07-13T03:24:54;9.63;;;2.80;;
51987;SDS011;38003;52.012;4.346;2023-07-13T03:27:22;9.55;;;2.42;;
51987;SDS011;38003;52.012;4.346;2023-07-13T03:29:51;8.20;;;2.13;;
51987;SDS011;38003;52.012;4.346;2023-07-13T03:32:19;13.35;;;3.05;;
51987;SDS011;38003;52.012;4.346;2023-07-13T03:34:47;7.93;;;2.73;;
51987;SDS011;38003;52.012;4.346;2023-07-13T03:37:16;8.97;;;2.90;;
51987;SDS011;38003;52.012;4.346;2023-07-13T03:39:45;8.77;;;2.60;;
51987;SDS011;38003;52.012;4.346;2023-07-13T03:42:13;13.00;;;2.67;;
51987;SDS011;38003;52.012;4.346;2023-07-13T03:44:42;12.63;;;2.40;;
51987;SDS011;38003;52.012;4.346;2023-07-13T03:47:12;8.65;;;2.40;;
51987;SDS011;38003;52.012;4.346;2023-07-13T03:49:40;9.33;;;2.60;;
51987;SDS011;38003;52.012;4.346;2023-07-13T03:52:08;9.32;;;2.58;;
51987;SDS011;38003;52.012;4.346;2023-07-13T03:54:36;12.70;;;2.63;;
51987;SDS011;38003;52.012;4.346;2023-07-13T03:57:06;9.55;;;2.88;;
51987;SDS011;38003;52.012;4.346;2023-07-13T03:59:34;9.40;;;2.30;;
51987;SDS011;38003;52.012;4.346;2023-07-13T04:02:03;10.07;;;2.30;;
51987;SDS011;38003;52.012;4.346;2023-07-13T04:04:31;12.07;;;2.43;;
51987;SDS011;38003;52.012;4.346;2023-07-13T04:07:00;8.10;;;2.55;;
51987;SDS011;38003;52.012;4.346;2023-07-13T04:09:29;12.23;;;3.00;;
51987;SDS011;38003;52.012;4.346;2023-07-13T04:11:57;8.90;;;2.67;;
51987;SDS011;38003;52.012;4.346;2023-07-13T04:14:27;10.87;;;2.60;;
51987;SDS011;38003;52.012;4.346;2023-07-13T04:16:55;10.18;;;2.40;;
51987;SDS011;38003;52.012;4.346;2023-07-13T04:19:23;7.60;;;2.63;;
51987;SDS011;38003;52.012;4.346;2023-07-13T04:21:52;8.43;;;2.73;;
51987;SDS011;38003;52.012;4.346;2023-07-13T04:24:20;9.50;;;2.27;;
51987;SDS011;38003;52.012;4.346;2023-07-13T04:26:48;7.30;;;2.35;;
51987;SDS011;38003;52.012;4.346;2023-07-13T04:29:16;9.52;;;2.83;;
51987;SDS011;38003;52.012;4.346;2023-07-13T04:31:46;5.22;;;2.10;;
51987;SDS011;38003;52.012;4.346;2023-07-13T04:34:15;8.77;;;2.50;;
51987;SDS011;38003;52.012;4.346;2023-07-13T04:36:43;9.10;;;2.17;;
51987;SDS011;38003;52.012;4.346;2023-07-13T04:39:11;8.52;;;2.75;;
51987;SDS011;38003;52.012;4.346;2023-07-13T04:41:39;6.35;;;2.33;;
51987;SDS011;38003;52.012;4.346;2023-07-13T04:44:08;7.10;;;2.33;;
51987;SDS011;38003;52.012;4.346;2023-07-13T04:46:36;7.22;;;2.50;;
51987;SDS011;38003;52.012;4.346;2023-07-13T04:49:05;5.53;;;2.22;;
51987;SDS011;38003;52.012;4.346;2023-07-13T04:51:34;13.40;;;3.28;;
51987;SDS011;38003;52.012;4.346;2023-07-13T04:54:02;9.32;;;2.63;;
51987;SDS011;38003;52.012;4.346;2023-07-13T04:56:31;8.77;;;2.10;;
51987;SDS011;38003;52.012;4.346;2023-07-13T04:58:59;9.77;;;2.77;;
51987;SDS011;38003;52.012;4.346;2023-07-13T05:01:28;7.07;;;2.30;;
51987;SDS011;38003;52.012;4.346;2023-07-13T05:03:57;8.70;;;2.30;;
51987;SDS011;38003;52.012;4.346;2023-07-13T05:06:27;8.07;;;2.33;;
51987;SDS011;38003;52.012;4.346;2023-07-13T05:08:56;10.77;;;3.33;;
51987;SDS011;38003;52.012;4.346;2023-07-13T05:11:25;9.30;;;3.13;;
51987;SDS011;38003;52.012;4.346;2023-07-13T05:13:53;5.63;;;2.00;;
51987;SDS011;38003;52.012;4.346;2023-07-13T05:16:21;6.35;;;2.20;;
51987;SDS011;38003;52.012;4.346;2023-07-13T05:18:49;8.70;;;2.55;;
51987;SDS011;38003;52.012;4.346;2023-07-13T05:21:17;6.20;;;2.17;;
51987;SDS011;38003;52.012;4.346;2023-07-13T05:23:47;5.47;;;2.42;;
51987;SDS011;38003;52.012;4.346;2023-07-13T05:26:15;8.40;;;2.42;;
51987;SDS011;38003;52.012;4.346;2023-07-13T05:28:44;4.35;;;1.95;;
51987;SDS011;38003;52.012;4.346;2023-07-13T05:31:12;6.03;;;2.00;;
51987;SDS011;38003;52.012;4.346;2023-07-13T05:33:41;5.70;;;2.30;;
51987;SDS011;38003;52.012;4.346;2023-07-13T05:36:09;6.37;;;2.20;;
51987;SDS011;38003;52.012;4.346;2023-07-13T05:38:38;6.93;;;2.03;;
51987;SDS011;38003;52.012;4.346;2023-07-13T05:41:07;10.07;;;2.40;;
51987;SDS011;38003;52.012;4.346;2023-07-13T05:43:36;9.57;;;2.73;;
51987;SDS011;38003;52.012;4.346;2023-07-13T05:46:04;5.22;;;2.35;;
51987;SDS011;38003;52.012;4.346;2023-07-13T05:48:32;8.57;;;2.50;;
51987;SDS011;38003;52.012;4.346;2023-07-13T05:51:01;7.40;;;2.10;;
51987;SDS011;38003;52.012;4.346;2023-07-13T05:53:29;8.97;;;2.40;;
51987;SDS011;38003;52.012;4.346;2023-07-13T05:55:58;7.27;;;2.10;;
51987;SDS011;38003;52.012;4.346;2023-07-13T05:58:29;7.10;;;2.20;;
51987;SDS011;38003;52.012;4.346;2023-07-13T06:00:58;7.30;;;2.20;;
51987;SDS011;38003;52.012;4.346;2023-07-13T06:03:28;7.95;;;2.38;;
51987;SDS011;38003;52.012;4.346;2023-07-13T06:05:56;5.53;;;2.10;;
51987;SDS011;38003;52.012;4.346;2023-07-13T06:08:26;7.30;;;2.23;;
51987;SDS011;38003;52.012;4.346;2023-07-13T06:10:58;7.57;;;2.10;;
51987;SDS011;38003;52.012;4.346;2023-07-13T06:13:30;4.53;;;2.13;;
51987;SDS011;38003;52.012;4.346;2023-07-13T06:15:59;7.80;;;2.20;;
51987;SDS011;38003;52.012;4.346;2023-07-13T06:18:30;5.93;;;2.70;;
51987;SDS011;38003;52.012;4.346;2023-07-13T06:20:58;6.88;;;2.40;;
51987;SDS011;38003;52.012;4.346;2023-07-13T06:23:26;7.83;;;2.47;;
51987;SDS011;38003;52.012;4.346;2023-07-13T06:25:55;8.37;;;2.53;;
51987;SDS011;38003;52.012;4.346;2023-07-13T06:28:23;8.65;;;2.13;;
51987;SDS011;38003;52.012;4.346;2023-07-13T06:30:53;6.50;;;2.67;;
51987;SDS011;38003;52.012;4.346;2023-07-13T06:33:21;9.35;;;2.40;;
51987;SDS011;38003;52.012;4.346;2023-07-13T06:35:49;5.90;;;2.27;;
51987;SDS011;38003;52.012;4.346;2023-07-13T06:38:17;6.23;;;2.17;;
51987;SDS011;38003;52.012;4.346;2023-07-13T06:40:46;7.70;;;2.70;;
51987;SDS011;38003;52.012;4.346;2023-07-13T06:43:14;7.57;;;2.63;;
51987;SDS011;38003;52.012;4.346;2023-07-13T06:45:43;6.47;;;2.33;;
51987;SDS011;38003;52.012;4.346;2023-07-13T06:48:15;4.87;;;2.40;;
51987;SDS011;38003;52.012;4.346;2023-07-13T06:50:43;4.93;;;2.30;;
51987;SDS011;38003;52.012;4.346;2023-07-13T06:53:11;5.63;;;2.40;;
51987;SDS011;38003;52.012;4.346;2023-07-13T06:55:40;6.83;;;2.50;;
51987;SDS011;38003;52.012;4.346;2023-07-13T06:58:08;9.97;;;3.07;;
51987;SDS011;38003;52.012;4.346;2023-07-13T07:00:36;8.33;;;2.20;;
51987;SDS011;38003;52.012;4.346;2023-07-13T07:03:06;8.33;;;2.63;;
51987;SDS011;38003;52.012;4.346;2023-07-13T07:05:36;4.83;;;2.00;;
51987;SDS011;38003;52.012;4.346;2023-07-13T07:08:04;6.47;;;2.40;;
51987;SDS011;38003;52.012;4.346;2023-07-13T07:10:33;6.20;;;2.20;;
51987;SDS011;38003;52.012;4.346;2023-07-13T07:13:01;8.20;;;2.50;;
51987;SDS011;38003;52.012;4.346;2023-07-13T07:15:29;7.07;;;2.80;;
51987;SDS011;38003;52.012;4.346;2023-07-13T07:17:58;6.77;;;2.23;;
51987;SDS011;38003;52.012;4.346;2023-07-13T07:20:26;7.72;;;2.42;;
51987;SDS011;38003;52.012;4.346;2023-07-13T07:22:58;8.57;;;2.67;;
51987;SDS011;38003;52.012;4.346;2023-07-13T07:25:26;10.83;;;2.40;;
51987;SDS011;38003;52.012;4.346;2023-07-13T07:27:58;5.73;;;2.30;;
51987;SDS011;38003;52.012;4.346;2023-07-13T07:30:29;9.05;;;2.25;;
51987;SDS011;38003;52.012;4.346;2023-07-13T07:33:00;7.07;;;2.33;;
51987;SDS011;38003;52.012;4.346;2023-07-13T07:35:31;7.50;;;2.35;;
51987;SDS011;38003;52.012;4.346;2023-07-13T07:38:07;8.90;;;2.67;;
51987;SDS011;38003;52.012;4.346;2023-07-13T07:40:36;5.13;;;2.50;;
51987;SDS011;38003;52.012;4.346;2023-07-13T07:43:07;7.77;;;2.73;;
51987;SDS011;38003;52.012;4.346;2023-07-13T07:45:35;9.50;;;2.88;;
51987;SDS011;38003;52.012;4.346;2023-07-13T07:48:04;6.72;;;2.50;;
51987;SDS011;38003;52.012;4.346;2023-07-13T07:50:33;6.63;;;2.65;;
51987;SDS011;38003;52.012;4.346;2023-07-13T07:53:01;7.50;;;2.60;;
51987;SDS011;38003;52.012;4.346;2023-07-13T07:55:30;6.22;;;2.67;;
51987;SDS011;38003;52.012;4.346;2023-07-13T07:58:04;7.07;;;2.60;;
51987;SDS011;38003;52.012;4.346;2023-07-13T08:00:52;5.40;;;2.40;;
51987;SDS011;38003;52.012;4.346;2023-07-13T08:03:23;8.87;;;2.83;;
51987;SDS011;38003;52.012;4.346;2023-07-13T08:05:55;9.50;;;2.70;;
51987;SDS011;38003;52.012;4.346;2023-07-13T08:08:43;9.48;;;2.25;;
51987;SDS011;38003;52.012;4.346;2023-07-13T08:11:12;7.22;;;2.65;;
51987;SDS011;38003;52.012;4.346;2023-07-13T08:13:43;5.53;;;2.47;;
51987;SDS011;38003;52.012;4.346;2023-07-13T08:16:12;6.50;;;2.30;;
51987;SDS011;38003;52.012;4.346;2023-07-13T08:18:40;5.60;;;2.20;;
51987;SDS011;38003;52.012;4.346;2023-07-13T08:21:08;6.13;;;2.17;;
51987;SDS011;38003;52.012;4.346;2023-07-13T08:23:37;9.10;;;2.50;;
51987;SDS011;38003;52.012;4.346;2023-07-13T08:26:05;6.85;;;2.50;;
51987;SDS011;38003;52.012;4.346;2023-07-13T08:28:35;7.10;;;2.35;;
51987;SDS011;38003;52.012;4.346;2023-07-13T08:31:04;9.03;;;2.67;;
51987;SDS011;38003;52.012;4.346;2023-07-13T08:33:34;11.67;;;2.73;;
51987;SDS011;38003;52.012;4.346;2023-07-13T08:36:02;5.63;;;2.30;;
51987;SDS011;38003;52.012;4.346;2023-07-13T08:38:31;11.73;;;2.63;;
51987;SDS011;38003;52.012;4.346;2023-07-13T08:40:59;7.93;;;2.60;;
51987;SDS011;38003;52.012;4.346;2023-07-13T08:43:28;8.70;;;2.30;;
51987;SDS011;38003;52.012;4.346;2023-07-13T08:45:59;6.00;;;2.40;;
51987;SDS011;38003;52.012;4.346;2023-07-13T08:48:29;6.63;;;2.33;;
51987;SDS011;38003;52.012;4.346;2023-07-13T08:51:00;5.50;;;2.35;;
51987;SDS011;38003;52.012;4.346;2023-07-13T08:53:33;7.23;;;2.37;;
51987;SDS011;38003;52.012;4.346;2023-07-13T08:56:02;8.25;;;2.38;;
51987;SDS011;38003;52.012;4.346;2023-07-13T08:58:30;6.83;;;2.70;;
51987;SDS011;38003;52.012;4.346;2023-07-13T09:01:02;5.05;;;2.22;;
51987;SDS011;38003;52.012;4.346;2023-07-13T09:03:35;6.70;;;2.70;;
51987;SDS011;38003;52.012;4.346;2023-07-13T09:06:06;8.80;;;2.50;;
51987;SDS011;38003;52.012;4.346;2023-07-13T09:08:43;8.55;;;2.38;;
51987;SDS011;38003;52.012;4.346;2023-07-13T09:11:17;7.67;;;2.73;;
51987;SDS011;38003;52.012;4.346;2023-07-13T09:13:51;6.40;;;2.60;;
51987;SDS011;38003;52.012;4.346;2023-07-13T09:16:24;5.00;;;2.43;;
51987;SDS011;38003;52.012;4.346;2023-07-13T09:18:54;6.68;;;2.40;;
51987;SDS011;38003;52.012;4.346;2023-07-13T09:21:24;6.05;;;2.40;;
51987;SDS011;38003;52.012;4.346;2023-07-13T09:23:53;6.63;;;2.63;;
51987;SDS011;38003;52.012;4.346;2023-07-13T09:26:23;4.60;;;2.00;;
51987;SDS011;38003;52.012;4.346;2023-07-13T09:28:53;5.73;;;2.40;;
51987;SDS011;38003;52.012;4.346;2023-07-13T09:31:26;5.97;;;2.47;;
51987;SDS011;38003;52.012;4.346;2023-07-13T09:33:57;7.20;;;2.50;;
51987;SDS011;38003;52.012;4.346;2023-07-13T09:36:27;6.53;;;2.33;;
51987;SDS011;38003;52.012;4.346;2023-07-13T09:38:57;5.75;;;3.05;;
51987;SDS011;38003;52.012;4.346;2023-07-13T09:41:28;6.47;;;2.10;;
51987;SDS011;38003;52.012;4.346;2023-07-13T09:44:01;7.90;;;2.60;;
51987;SDS011;38003;52.012;4.346;2023-07-13T09:46:31;6.95;;;2.50;;
51987;SDS011;38003;52.012;4.346;2023-07-13T09:48:59;7.20;;;2.75;;
51987;SDS011;38003;52.012;4.346;2023-07-13T09:51:27;5.60;;;2.63;;
51987;SDS011;38003;52.012;4.346;2023-07-13T09:53:55;9.05;;;2.45;;
51987;SDS011;38003;52.012;4.346;2023-07-13T09:56:26;7.32;;;2.60;;
51987;SDS011;38003;52.012;4.346;2023-07-13T09:58:54;4.60;;;2.63;;
51987;SDS011;38003;52.012;4.346;2023-07-13T10:01:35;5.90;;;2.33;;
51987;SDS011;38003;52.012;4.346;2023-07-13T10:04:10;5.22;;;2.30;;
51987;SDS011;38003;52.012;4.346;2023-07-13T10:06:39;3.63;;;2.10;;
51987;SDS011;38003;52.012;4.346;2023-07-13T10:09:09;5.82;;;2.40;;
51987;SDS011;38003;52.012;4.346;2023-07-13T10:11:39;12.63;;;2.45;;
51987;SDS011;38003;52.012;4.346;2023-07-13T10:14:11;5.50;;;2.03;;
51987;SDS011;38003;52.012;4.346;2023-07-13T10:16:42;6.43;;;2.30;;
51987;SDS011;38003;52.012;4.346;2023-07-13T10:19:12;6.75;;;2.75;;
51987;SDS011;38003;52.012;4.346;2023-07-13T10:21:46;6.45;;;2.50;;
51987;SDS011;38003;52.012;4.346;2023-07-13T10:24:16;7.53;;;2.80;;
51987;SDS011;38003;52.012;4.346;2023-07-13T10:26:46;5.88;;;2.45;;
51987;SDS011;38003;52.012;4.346;2023-07-13T10:29:16;6.10;;;2.40;;
51987;SDS011;38003;52.012;4.346;2023-07-13T10:31:46;5.35;;;2.58;;
51987;SDS011;38003;52.012;4.346;2023-07-13T10:34:14;6.75;;;2.50;;
51987;SDS011;38003;52.012;4.346;2023-07-13T10:36:44;6.20;;;2.40;;
51987;SDS011;38003;52.012;4.346;2023-07-13T10:39:14;7.25;;;2.58;;
51987;SDS011;38003;52.012;4.346;2023-07-13T10:41:43;5.25;;;2.30;;
51987;SDS011;38003;52.012;4.346;2023-07-13T10:44:15;8.48;;;2.50;;
51987;SDS011;38003;52.012;4.346;2023-07-13T10:46:46;6.68;;;2.50;;
51987;SDS011;38003;52.012;4.346;2023-07-13T10:49:14;7.47;;;3.08;;
51987;SDS011;38003;52.012;4.346;2023-07-13T10:51:43;4.95;;;2.53;;
51987;SDS011;38003;52.012;4.346;2023-07-13T10:54:18;5.25;;;2.40;;
51987;SDS011;38003;52.012;4.346;2023-07-13T10:56:52;3.53;;;2.20;;
51987;SDS011;38003;52.012;4.346;2023-07-13T10:59:24;7.05;;;2.83;;
51987;SDS011;38003;52.012;4.346;2023-07-13T11:01:56;5.03;;;2.42;;
51987;SDS011;38003;52.012;4.346;2023-07-13T11:04:26;5.63;;;2.40;;
51987;SDS011;38003;52.012;4.346;2023-07-13T11:06:56;5.47;;;2.50;;
51987;SDS011;38003;52.012;4.346;2023-07-13T11:09:33;5.13;;;2.47;;
51987;SDS011;38003;52.012;4.346;2023-07-13T11:12:06;5.72;;;2.40;;
51987;SDS011;38003;52.012;4.346;2023-07-13T11:14:36;4.28;;;2.17;;
51987;SDS011;38003;52.012;4.346;2023-07-13T11:17:32;5.18;;;2.25;;
51987;SDS011;38003;52.012;4.346;2023-07-13T11:20:09;5.38;;;2.28;;
51987;SDS011;38003;52.012;4.346;2023-07-13T11:22:42;6.50;;;2.28;;
51987;SDS011;38003;52.012;4.346;2023-07-13T11:25:21;4.50;;;2.00;;
51987;SDS011;38003;52.012;4.346;2023-07-13T11:28:03;5.00;;;2.38;;
51987;SDS011;38003;52.012;4.346;2023-07-13T11:30:35;5.78;;;2.42;;
51987;SDS011;38003;52.012;4.346;2023-07-13T11:33:15;6.38;;;3.30;;
51987;SDS011;38003;52.012;4.346;2023-07-13T11:35:46;5.30;;;2.42;;
51987;SDS011;38003;52.012;4.346;2023-07-13T11:38:18;8.57;;;2.50;;
51987;SDS011;38003;52.012;4.346;2023-07-13T11:40:47;4.05;;;2.50;;
51987;SDS011;38003;52.012;4.346;2023-07-13T11:43:21;5.75;;;2.80;;
51987;SDS011;38003;52.012;4.346;2023-07-13T11:45:50;6.97;;;2.60;;
51987;SDS011;38003;52.012;4.346;2023-07-13T11:48:22;5.32;;;2.50;;
51987;SDS011;38003;52.012;4.346;2023-07-13T11:50:51;4.32;;;2.50;;
51987;SDS011;38003;52.012;4.346;2023-07-13T11:53:21;4.32;;;2.53;;
51987;SDS011;38003;52.012;4.346;2023-07-13T11:55:50;2.72;;;2.45;;
51987;SDS011;38003;52.012;4.346;2023-07-13T11:58:19;4.38;;;2.75;;
51987;SDS011;38003;52.012;4.346;2023-07-13T12:00:49;4.05;;;2.17;;
51987;SDS011;38003;52.012;4.346;2023-07-13T12:03:22;3.72;;;2.20;;
51987;SDS011;38003;52.012;4.346;2023-07-13T12:05:55;3.13;;;1.95;;
51987;SDS011;38003;52.012;4.346;2023-07-13T12:08:24;6.43;;;2.17;;
51987;SDS011;38003;52.012;4.346;2023-07-13T12:10:56;2.83;;;1.95;;
51987;SDS011;38003;52.012;4.346;2023-07-13T12:13:25;5.32;;;2.28;;
51987;SDS011;38003;52.012;4.346;2023-07-13T12:15:54;4.93;;;1.80;;
51987;SDS011;38003;52.012;4.346;2023-07-13T12:18:29;5.90;;;2.35;;
51987;SDS011;38003;52.012;4.346;2023-07-13T12:20:58;4.72;;;2.20;;
51987;SDS011;38003;52.012;4.346;2023-07-13T12:23:28;5.85;;;1.98;;
51987;SDS011;38003;52.012;4.346;2023-07-13T12:25:57;3.67;;;1.90;;
51987;SDS011;38003;52.012;4.346;2023-07-13T12:28:30;5.50;;;2.28;;
51987;SDS011;38003;52.012;4.346;2023-07-13T12:30:59;6.90;;;2.10;;
51987;SDS011;38003;52.012;4.346;2023-07-13T12:33:29;4.45;;;1.92;;
51987;SDS011;38003;52.012;4.346;2023-07-13T12:35:59;5.93;;;2.15;;
51987;SDS011;38003;52.012;4.346;2023-07-13T12:38:30;5.10;;;1.95;;
51987;SDS011;38003;52.012;4.346;2023-07-13T12:40:58;4.45;;;2.00;;
51987;SDS011;38003;52.012;4.346;2023-07-13T12:43:28;3.95;;;2.10;;
51987;SDS011;38003;52.012;4.346;2023-07-13T12:45:57;4.30;;;1.92;;
51987;SDS011;38003;52.012;4.346;2023-07-13T12:48:26;13.20;;;2.28;;
51987;SDS011;38003;52.012;4.346;2023-07-13T12:51:14;4.47;;;1.67;;
51987;SDS011;38003;52.012;4.346;2023-07-13T12:53:43;6.40;;;1.88;;
51987;SDS011;38003;52.012;4.346;2023-07-13T12:56:16;3.38;;;1.63;;
51987;SDS011;38003;52.012;4.346;2023-07-13T12:58:46;4.63;;;1.60;;
51987;SDS011;38003;52.012;4.346;2023-07-13T13:01:21;4.90;;;1.77;;
51987;SDS011;38003;52.012;4.346;2023-07-13T13:03:50;3.97;;;1.50;;
51987;SDS011;38003;52.012;4.346;2023-07-13T13:06:22;2.83;;;1.50;;
51987;SDS011;38003;52.012;4.346;2023-07-13T13:08:51;8.00;;;2.10;;
51987;SDS011;38003;52.012;4.346;2023-07-13T13:11:20;4.13;;;1.75;;
51987;SDS011;38003;52.012;4.346;2023-07-13T13:13:49;4.50;;;1.60;;
51987;SDS011;38003;52.012;4.346;2023-07-13T13:16:19;2.70;;;1.48;;
51987;SDS011;38003;52.012;4.346;2023-07-13T13:18:49;6.05;;;1.90;;
51987;SDS011;38003;52.012;4.346;2023-07-13T13:21:17;7.05;;;2.03;;
51987;SDS011;38003;52.012;4.346;2023-07-13T13:23:47;2.92;;;1.60;;
51987;SDS011;38003;52.012;4.346;2023-07-13T13:26:18;4.82;;;1.58;;
51987;SDS011;38003;52.012;4.346;2023-07-13T13:28:47;4.10;;;2.03;;
51987;SDS011;38003;52.012;4.346;2023-07-13T13:31:15;5.88;;;1.60;;
51987;SDS011;38003;52.012;4.346;2023-07-13T13:33:44;4.05;;;1.58;;
51987;SDS011;38003;52.012;4.346;2023-07-13T13:36:15;2.97;;;1.60;;
51987;SDS011;38003;52.012;4.346;2023-07-13T13:38:43;2.78;;;1.45;;
51987;SDS011;38003;52.012;4.346;2023-07-13T13:41:13;4.13;;;1.50;;
51987;SDS011;38003;52.012;4.346;2023-07-13T13:43:42;3.97;;;1.48;;
51987;SDS011;38003;52.012;4.346;2023-07-13T13:46:14;3.63;;;1.73;;
51987;SDS011;38003;52.012;4.346;2023-07-13T13:48:43;2.53;;;1.20;;
51987;SDS011;38003;52.012;4.346;2023-07-13T13:51:13;4.38;;;1.50;;
51987;SDS011;38003;52.012;4.346;2023-07-13T13:53:42;3.50;;;1.50;;
51987;SDS011;38003;52.012;4.346;2023-07-13T13:56:13;5.10;;;1.25;;
51987;SDS011;38003;52.012;4.346;2023-07-13T13:58:41;4.43;;;1.35;;
51987;SDS011;38003;52.012;4.346;2023-07-13T14:01:11;3.30;;;1.38;;
51987;SDS011;38003;52.012;4.346;2023-07-13T14:03:40;3.33;;;1.20;;
51987;SDS011;38003;52.012;4.346;2023-07-13T14:06:10;3.72;;;1.10;;
51987;SDS011;38003;52.012;4.346;2023-07-13T14:08:39;3.53;;;1.60;;
51987;SDS011;38003;52.012;4.346;2023-07-13T14:11:08;2.50;;;1.17;;
51987;SDS011;38003;52.012;4.346;2023-07-13T14:13:41;2.97;;;1.23;;
51987;SDS011;38003;52.012;4.346;2023-07-13T14:16:11;4.15;;;1.50;;
51987;SDS011;38003;52.012;4.346;2023-07-13T14:18:40;2.63;;;1.50;;
51987;SDS011;38003;52.012;4.346;2023-07-13T14:21:10;3.95;;;1.40;;
51987;SDS011;38003;52.012;4.346;2023-07-13T14:23:39;3.55;;;1.67;;
51987;SDS011;38003;52.012;4.346;2023-07-13T14:26:10;1.90;;;1.35;;
51987;SDS011;38003;52.012;4.346;2023-07-13T14:28:42;2.60;;;1.42;;
51987;SDS011;38003;52.012;4.346;2023-07-13T14:31:12;4.45;;;1.65;;
51987;SDS011;38003;52.012;4.346;2023-07-13T14:33:40;4.75;;;1.50;;
51987;SDS011;38003;52.012;4.346;2023-07-13T14:36:21;4.55;;;1.67;;
51987;SDS011;38003;52.012;4.346;2023-07-13T14:38:51;5.30;;;1.90;;
51987;SDS011;38003;52.012;4.346;2023-07-13T14:41:19;2.70;;;1.40;;
51987;SDS011;38003;52.012;4.346;2023-07-13T14:43:49;2.55;;;1.55;;
51987;SDS011;38003;52.012;4.346;2023-07-13T14:46:27;3.15;;;1.40;;
51987;SDS011;38003;52.012;4.346;2023-07-13T14:48:59;3.63;;;1.60;;
51987;SDS011;38003;52.012;4.346;2023-07-13T14:51:28;3.30;;;1.60;;
51987;SDS011;38003;52.012;4.346;2023-07-13T14:53:57;3.30;;;1.25;;
51987;SDS011;38003;52.012;4.346;2023-07-13T14:56:25;3.03;;;1.10;;
51987;SDS011;38003;52.012;4.346;2023-07-13T14:58:55;2.22;;;1.30;;
51987;SDS011;38003;52.012;4.346;2023-07-13T15:01:23;3.33;;;1.40;;
51987;SDS011;38003;52.012;4.346;2023-07-13T15:03:52;4.32;;;1.30;;